sensor_id;sensor_type;location;lat;lon;timestamp;temperature;humidity
8882;DHT22;4477;48.736;9.176;2024-03-06T00:00:36;3.40;99.90
8882;DHT22;4477;48.736;9.176;2024-03-06T00:03:03;3.50;99.90
8882;DHT22;4477;48.736;9.176;2024-03-06T00:05:30;3.50;99.90
8882;DHT22;4477;48.736;9.176;2024-03-06T00:07:57;3.60;99.90
8882;DHT22;4477;48.736;9.176;2024-03-06T00:10:26;3.60;99.90
8882;DHT22;4477;48.736;9.176;2024-03-06T00:12:54;3.60;99.90
8882;DHT22;4477;48.736;9.176;2024-03-06T00:15:21;3.60;99.90
8882;DHT22;4477;48.736;9.176;2024-03-06T00:17:47;3.60;99.90
8882;DHT22;4477;48.736;9.176;2024-03-06T00:20:15;3.70;99.90
8882;DHT22;4477;48.736;9.176;2024-03-06T00:22:42;3.70;99.90
8882;DHT22;4477;48.736;9.176;2024-03-06T00:25:09;3.70;99.90
8882;DHT22;4477;48.736;9.176;2024-03-06T00:27:36;3.70;99.90
8882;DHT22;4477;48.736;9.176;2024-03-06T00:30:05;3.70;99.90
8882;DHT22;4477;48.736;9.176;2024-03-06T00:32:33;3.70;99.90
8882;DHT22;4477;48.736;9.176;2024-03-06T00:35:00;3.70;99.90
8882;DHT22;4477;48.736;9.176;2024-03-06T00:37:27;3.80;99.90
8882;DHT22;4477;48.736;9.176;2024-03-06T00:39:54;3.80;99.90
8882;DHT22;4477;48.736;9.176;2024-03-06T00:42:21;3.80;99.90
8882;DHT22;4477;48.736;9.176;2024-03-06T00:44:48;3.80;99.90
8882;DHT22;4477;48.736;9.176;2024-03-06T00:47:16;3.80;99.90
8882;DHT22;4477;48.736;9.176;2024-03-06T00:49:43;3.70;99.90
8882;DHT22;4477;48.736;9.176;2024-03-06T00:52:10;3.70;99.90
8882;DHT22;4477;48.736;9.176;2024-03-06T00:54:36;3.70;99.90
8882;DHT22;4477;48.736;9.176;2024-03-06T00:57:03;3.70;99.90
8882;DHT22;4477;48.736;9.176;2024-03-06T00:59:30;3.70;99.90
8882;DHT22;4477;48.736;9.176;2024-03-06T01:01:57;3.70;99.90
8882;DHT22;4477;48.736;9.176;2024-03-06T01:04:26;3.60;99.90
8882;DHT22;4477;48.736;9.176;2024-03-06T01:06:52;3.60;99.90
8882;DHT22;4477;48.736;9.176;2024-03-06T01:09:19;3.60;99.90
8882;DHT22;4477;48.736;9.176;2024-03-06T01:11:46;3.50;99.90
8882;DHT22;4477;48.736;9.176;2024-03-06T01:14:13;3.50;99.90
8882;DHT22;4477;48.736;9.176;2024-03-06T01:16:40;3.40;99.90
8882;DHT22;4477;48.736;9.176;2024-03-06T01:19:07;3.40;99.90
8882;DHT22;4477;48.736;9.176;2024-03-06T01:21:35;3.30;99.90
8882;DHT22;4477;48.736;9.176;2024-03-06T01:24:02;3.30;99.90
8882;DHT22;4477;48.736;9.176;2024-03-06T01:26:29;3.30;99.90
8882;DHT22;4477;48.736;9.176;2024-03-06T01:28:56;3.20;99.90
8882;DHT22;4477;48.736;9.176;2024-03-06T01:31:23;3.20;99.90
8882;DHT22;4477;48.736;9.176;2024-03-06T01:33:54;3.10;99.90
8882;DHT22;4477;48.736;9.176;2024-03-06T01:36:24;3.10;99.90
8882;DHT22;4477;48.736;9.176;2024-03-06T01:38:58;3.20;99.90
8882;DHT22;4477;48.736;9.176;2024-03-06T01:41:30;3.30;99.90
8882;DHT22;4477;48.736;9.176;2024-03-06T01:43:57;3.30;99.90
8882;DHT22;4477;48.736;9.176;2024-03-06T01:46:24;3.30;99.90
8882;DHT22;4477;48.736;9.176;2024-03-06T01:48:52;3.40;99.90
8882;DHT22;4477;48.736;9.176;2024-03-06T01:51:20;3.50;99.90
8882;DHT22;4477;48.736;9.176;2024-03-06T01:53:50;3.50;99.90
8882;DHT22;4477;48.736;9.176;2024-03-06T01:56:23;3.50;99.90
8882;DHT22;4477;48.736;9.176;2024-03-06T01:58:51;3.50;99.90
8882;DHT22;4477;48.736;9.176;2024-03-06T02:01:21;3.40;99.90
8882;DHT22;4477;48.736;9.176;2024-03-06T02:03:49;3.50;99.90
8882;DHT22;4477;48.736;9.176;2024-03-06T02:06:20;3.40;99.90
8882;DHT22;4477;48.736;9.176;2024-03-06T02:08:49;3.50;99.90
8882;DHT22;4477;48.736;9.176;2024-03-06T02:11:17;3.50;99.90
8882;DHT22;4477;48.736;9.176;2024-03-06T02:13:45;3.50;99.90
8882;DHT22;4477;48.736;9.176;2024-03-06T02:16:12;3.50;99.90
8882;DHT22;4477;48.736;9.176;2024-03-06T02:18:51;3.50;99.90
8882;DHT22;4477;48.736;9.176;2024-03-06T02:21:20;3.60;99.90
8882;DHT22;4477;48.736;9.176;2024-03-06T02:23:47;3.50;99.90
8882;DHT22;4477;48.736;9.176;2024-03-06T02:26:15;3.60;99.90
8882;DHT22;4477;48.736;9.176;2024-03-06T02:28:47;3.70;99.90
8882;DHT22;4477;48.736;9.176;2024-03-06T02:31:15;3.70;99.90
8882;DHT22;4477;48.736;9.176;2024-03-06T02:33:43;3.70;99.90
8882;DHT22;4477;48.736;9.176;2024-03-06T02:36:10;3.70;99.90
8882;DHT22;4477;48.736;9.176;2024-03-06T02:38:39;3.80;99.90
8882;DHT22;4477;48.736;9.176;2024-03-06T02:41:10;3.70;99.90
8882;DHT22;4477;48.736;9.176;2024-03-06T02:43:41;3.80;99.90
8882;DHT22;4477;48.736;9.176;2024-03-06T02:46:09;3.80;99.90
8882;DHT22;4477;48.736;9.176;2024-03-06T02:48:38;3.80;99.90
8882;DHT22;4477;48.736;9.176;2024-03-06T02:51:05;3.80;99.90
8882;DHT22;4477;48.736;9.176;2024-03-06T02:53:33;3.70;99.90
8882;DHT22;4477;48.736;9.176;2024-03-06T02:56:20;3.70;99.90
8882;DHT22;4477;48.736;9.176;2024-03-06T02:58:52;3.70;99.90
8882;DHT22;4477;48.736;9.176;2024-03-06T03:01:20;3.70;99.90
8882;DHT22;4477;48.736;9.176;2024-03-06T03:03:49;3.70;99.90
8882;DHT22;4477;48.736;9.176;2024-03-06T03:06:17;3.70;99.90
8882;DHT22;4477;48.736;9.176;2024-03-06T03:08:44;3.80;99.90
8882;DHT22;4477;48.736;9.176;2024-03-06T03:11:25;3.70;99.90
8882;DHT22;4477;48.736;9.176;2024-03-06T03:14:13;3.70;99.90
8882;DHT22;4477;48.736;9.176;2024-03-06T03:16:45;3.70;99.90
8882;DHT22;4477;48.736;9.176;2024-03-06T03:19:13;3.70;99.90
8882;DHT22;4477;48.736;9.176;2024-03-06T03:21:43;3.70;99.90
8882;DHT22;4477;48.736;9.176;2024-03-06T03:24:10;3.70;99.90
8882;DHT22;4477;48.736;9.176;2024-03-06T03:26:39;3.70;99.90
8882;DHT22;4477;48.736;9.176;2024-03-06T03:29:07;3.70;99.90
8882;DHT22;4477;48.736;9.176;2024-03-06T03:31:34;3.70;99.90
8882;DHT22;4477;48.736;9.176;2024-03-06T03:34:02;3.80;99.90
8882;DHT22;4477;48.736;9.176;2024-03-06T03:36:29;3.70;99.90
8882;DHT22;4477;48.736;9.176;2024-03-06T03:38:56;3.70;99.90
8882;DHT22;4477;48.736;9.176;2024-03-06T03:41:23;3.70;99.90
8882;DHT22;4477;48.736;9.176;2024-03-06T03:43:52;3.70;99.90
8882;DHT22;4477;48.736;9.176;2024-03-06T03:46:19;3.70;99.90
8882;DHT22;4477;48.736;9.176;2024-03-06T03:48:46;3.80;99.90
8882;DHT22;4477;48.736;9.176;2024-03-06T03:51:13;3.80;99.90
8882;DHT22;4477;48.736;9.176;2024-03-06T03:53:40;3.80;99.90
8882;DHT22;4477;48.736;9.176;2024-03-06T03:56:07;3.70;99.90
8882;DHT22;4477;48.736;9.176;2024-03-06T03:58:34;3.80;99.90
8882;DHT22;4477;48.736;9.176;2024-03-06T04:01:02;3.90;99.90
8882;DHT22;4477;48.736;9.176;2024-03-06T04:03:29;3.90;99.90
8882;DHT22;4477;48.736;9.176;2024-03-06T04:05:56;3.90;99.90
8882;DHT22;4477;48.736;9.176;2024-03-06T04:08:23;3.90;99.90
8882;DHT22;4477;48.736;9.176;2024-03-06T04:10:50;3.90;99.90
8882;DHT22;4477;48.736;9.176;2024-03-06T04:13:17;3.80;99.90
8882;DHT22;4477;48.736;9.176;2024-03-06T04:15:45;3.90;99.90
8882;DHT22;4477;48.736;9.176;2024-03-06T04:18:14;3.90;99.90
8882;DHT22;4477;48.736;9.176;2024-03-06T04:20:42;3.80;99.90
8882;DHT22;4477;48.736;9.176;2024-03-06T04:23:09;3.80;99.90
8882;DHT22;4477;48.736;9.176;2024-03-06T04:25:36;3.80;99.90
8882;DHT22;4477;48.736;9.176;2024-03-06T04:28:03;3.80;99.90
8882;DHT22;4477;48.736;9.176;2024-03-06T04:30:30;3.80;99.90
8882;DHT22;4477;48.736;9.176;2024-03-06T04:32:57;3.80;99.90
8882;DHT22;4477;48.736;9.176;2024-03-06T04:35:25;3.80;99.90
8882;DHT22;4477;48.736;9.176;2024-03-06T04:37:52;3.80;99.90
8882;DHT22;4477;48.736;9.176;2024-03-06T04:40:18;3.70;99.90
8882;DHT22;4477;48.736;9.176;2024-03-06T04:42:48;3.80;99.90
8882;DHT22;4477;48.736;9.176;2024-03-06T04:45:15;3.70;99.90
8882;DHT22;4477;48.736;9.176;2024-03-06T04:47:43;3.80;99.90
8882;DHT22;4477;48.736;9.176;2024-03-06T04:50:10;3.70;99.90
8882;DHT22;4477;48.736;9.176;2024-03-06T04:52:39;3.70;99.90
8882;DHT22;4477;48.736;9.176;2024-03-06T04:55:06;3.70;99.90
8882;DHT22;4477;48.736;9.176;2024-03-06T04:57:36;3.70;99.90
8882;DHT22;4477;48.736;9.176;2024-03-06T05:00:04;3.70;99.90
8882;DHT22;4477;48.736;9.176;2024-03-06T05:02:32;3.80;99.90
8882;DHT22;4477;48.736;9.176;2024-03-06T05:04:59;3.80;99.90
8882;DHT22;4477;48.736;9.176;2024-03-06T05:07:27;3.80;99.90
8882;DHT22;4477;48.736;9.176;2024-03-06T05:09:56;3.80;99.90
8882;DHT22;4477;48.736;9.176;2024-03-06T05:12:24;3.80;99.90
8882;DHT22;4477;48.736;9.176;2024-03-06T05:14:51;3.80;99.90
8882;DHT22;4477;48.736;9.176;2024-03-06T05:17:18;3.80;99.90
8882;DHT22;4477;48.736;9.176;2024-03-06T05:19:45;3.80;99.90
8882;DHT22;4477;48.736;9.176;2024-03-06T05:22:13;3.80;99.90
8882;DHT22;4477;48.736;9.176;2024-03-06T05:24:40;3.80;99.90
8882;DHT22;4477;48.736;9.176;2024-03-06T05:27:08;3.80;99.90
8882;DHT22;4477;48.736;9.176;2024-03-06T05:29:38;3.70;99.90
8882;DHT22;4477;48.736;9.176;2024-03-06T05:32:06;3.70;99.90
8882;DHT22;4477;48.736;9.176;2024-03-06T05:34:33;3.70;99.90
8882;DHT22;4477;48.736;9.176;2024-03-06T05:37:00;3.70;99.90
8882;DHT22;4477;48.736;9.176;2024-03-06T05:39:29;3.70;99.90
8882;DHT22;4477;48.736;9.176;2024-03-06T05:42:00;3.70;99.90
8882;DHT22;4477;48.736;9.176;2024-03-06T05:44:29;3.70;99.90
8882;DHT22;4477;48.736;9.176;2024-03-06T05:46:57;3.70;99.90
8882;DHT22;4477;48.736;9.176;2024-03-06T05:49:24;3.70;99.90
8882;DHT22;4477;48.736;9.176;2024-03-06T05:51:52;3.70;99.90
8882;DHT22;4477;48.736;9.176;2024-03-06T05:54:19;3.70;99.90
8882;DHT22;4477;48.736;9.176;2024-03-06T05:56:48;3.70;99.90
8882;DHT22;4477;48.736;9.176;2024-03-06T05:59:16;3.70;99.90
8882;DHT22;4477;48.736;9.176;2024-03-06T06:01:45;3.70;99.90
8882;DHT22;4477;48.736;9.176;2024-03-06T06:04:12;3.70;99.90
8882;DHT22;4477;48.736;9.176;2024-03-06T06:06:40;3.70;99.90
8882;DHT22;4477;48.736;9.176;2024-03-06T06:09:07;3.70;99.90
8882;DHT22;4477;48.736;9.176;2024-03-06T06:11:38;3.70;99.90
8882;DHT22;4477;48.736;9.176;2024-03-06T06:14:05;3.70;99.90
8882;DHT22;4477;48.736;9.176;2024-03-06T06:16:37;3.70;99.90
8882;DHT22;4477;48.736;9.176;2024-03-06T06:19:05;3.70;99.90
8882;DHT22;4477;48.736;9.176;2024-03-06T06:21:33;3.80;99.90
8882;DHT22;4477;48.736;9.176;2024-03-06T06:24:02;3.80;99.90
8882;DHT22;4477;48.736;9.176;2024-03-06T06:26:30;3.80;99.90
8882;DHT22;4477;48.736;9.176;2024-03-06T06:28:58;3.80;99.90
8882;DHT22;4477;48.736;9.176;2024-03-06T06:31:25;3.80;99.90
8882;DHT22;4477;48.736;9.176;2024-03-06T06:33:54;3.90;99.90
8882;DHT22;4477;48.736;9.176;2024-03-06T06:36:22;3.90;99.90
8882;DHT22;4477;48.736;9.176;2024-03-06T06:38:49;3.90;99.90
8882;DHT22;4477;48.736;9.176;2024-03-06T06:41:17;3.90;99.90
8882;DHT22;4477;48.736;9.176;2024-03-06T06:43:45;4.00;99.90
8882;DHT22;4477;48.736;9.176;2024-03-06T06:46:13;4.00;99.90
8882;DHT22;4477;48.736;9.176;2024-03-06T06:48:42;4.00;99.90
8882;DHT22;4477;48.736;9.176;2024-03-06T06:51:10;4.10;99.90
8882;DHT22;4477;48.736;9.176;2024-03-06T06:53:41;4.10;99.90
8882;DHT22;4477;48.736;9.176;2024-03-06T06:56:10;4.10;99.90
8882;DHT22;4477;48.736;9.176;2024-03-06T06:58:40;4.20;99.90
8882;DHT22;4477;48.736;9.176;2024-03-06T07:01:10;4.20;99.90
8882;DHT22;4477;48.736;9.176;2024-03-06T07:03:39;4.30;99.90
8882;DHT22;4477;48.736;9.176;2024-03-06T07:06:24;4.30;99.90
8882;DHT22;4477;48.736;9.176;2024-03-06T07:09:00;4.30;99.90
8882;DHT22;4477;48.736;9.176;2024-03-06T07:11:36;4.40;99.90
8882;DHT22;4477;48.736;9.176;2024-03-06T07:14:04;4.40;99.90
8882;DHT22;4477;48.736;9.176;2024-03-06T07:16:31;4.40;99.90
8882;DHT22;4477;48.736;9.176;2024-03-06T07:18:58;4.50;99.90
8882;DHT22;4477;48.736;9.176;2024-03-06T07:21:25;4.50;99.90
8882;DHT22;4477;48.736;9.176;2024-03-06T07:23:54;4.60;99.90
8882;DHT22;4477;48.736;9.176;2024-03-06T07:26:20;4.60;99.90
8882;DHT22;4477;48.736;9.176;2024-03-06T07:28:47;4.60;99.90
8882;DHT22;4477;48.736;9.176;2024-03-06T07:31:14;4.70;99.90
8882;DHT22;4477;48.736;9.176;2024-03-06T07:33:41;4.80;99.90
8882;DHT22;4477;48.736;9.176;2024-03-06T07:36:09;4.80;99.90
8882;DHT22;4477;48.736;9.176;2024-03-06T07:38:36;4.70;99.90
8882;DHT22;4477;48.736;9.176;2024-03-06T07:41:04;4.70;99.90
8882;DHT22;4477;48.736;9.176;2024-03-06T07:43:31;4.70;99.90
8882;DHT22;4477;48.736;9.176;2024-03-06T07:45:58;4.50;99.90
8882;DHT22;4477;48.736;9.176;2024-03-06T07:48:26;4.50;99.90
8882;DHT22;4477;48.736;9.176;2024-03-06T07:50:52;4.60;99.90
8882;DHT22;4477;48.736;9.176;2024-03-06T07:53:19;4.60;99.90
8882;DHT22;4477;48.736;9.176;2024-03-06T07:55:46;4.60;99.90
8882;DHT22;4477;48.736;9.176;2024-03-06T07:58:14;4.70;99.90
8882;DHT22;4477;48.736;9.176;2024-03-06T08:00:42;4.80;99.90
8882;DHT22;4477;48.736;9.176;2024-03-06T08:03:09;4.90;99.90
8882;DHT22;4477;48.736;9.176;2024-03-06T08:05:39;4.90;99.90
8882;DHT22;4477;48.736;9.176;2024-03-06T08:08:07;4.90;99.90
8882;DHT22;4477;48.736;9.176;2024-03-06T08:10:34;4.90;99.90
8882;DHT22;4477;48.736;9.176;2024-03-06T08:13:01;4.80;99.90
8882;DHT22;4477;48.736;9.176;2024-03-06T08:15:30;5.00;99.90
8882;DHT22;4477;48.736;9.176;2024-03-06T08:17:56;4.90;99.90
8882;DHT22;4477;48.736;9.176;2024-03-06T08:20:23;4.80;99.90
8882;DHT22;4477;48.736;9.176;2024-03-06T08:22:50;4.90;99.90
8882;DHT22;4477;48.736;9.176;2024-03-06T08:25:17;5.00;99.90
8882;DHT22;4477;48.736;9.176;2024-03-06T08:27:44;5.00;99.90
8882;DHT22;4477;48.736;9.176;2024-03-06T08:30:11;4.90;99.90
8882;DHT22;4477;48.736;9.176;2024-03-06T08:32:39;4.90;99.90
8882;DHT22;4477;48.736;9.176;2024-03-06T08:35:10;4.90;99.90
8882;DHT22;4477;48.736;9.176;2024-03-06T08:37:38;5.00;99.90
8882;DHT22;4477;48.736;9.176;2024-03-06T08:40:06;5.00;99.90
8882;DHT22;4477;48.736;9.176;2024-03-06T08:42:39;5.00;99.90
8882;DHT22;4477;48.736;9.176;2024-03-06T08:45:07;5.00;99.90
8882;DHT22;4477;48.736;9.176;2024-03-06T08:47:34;5.00;99.90
8882;DHT22;4477;48.736;9.176;2024-03-06T08:50:03;5.00;99.90
8882;DHT22;4477;48.736;9.176;2024-03-06T08:52:30;5.00;99.90
8882;DHT22;4477;48.736;9.176;2024-03-06T08:54:57;4.90;99.90
8882;DHT22;4477;48.736;9.176;2024-03-06T08:57:24;4.90;99.90
8882;DHT22;4477;48.736;9.176;2024-03-06T08:59:53;5.00;99.90
8882;DHT22;4477;48.736;9.176;2024-03-06T09:02:20;5.20;99.90
8882;DHT22;4477;48.736;9.176;2024-03-06T09:04:47;5.20;99.90
8882;DHT22;4477;48.736;9.176;2024-03-06T09:07:15;5.20;99.90
8882;DHT22;4477;48.736;9.176;2024-03-06T09:09:42;5.20;99.90
8882;DHT22;4477;48.736;9.176;2024-03-06T09:12:10;5.30;99.90
8882;DHT22;4477;48.736;9.176;2024-03-06T09:14:37;5.50;99.90
8882;DHT22;4477;48.736;9.176;2024-03-06T09:17:05;5.40;99.90
8882;DHT22;4477;48.736;9.176;2024-03-06T09:19:32;5.30;99.90
8882;DHT22;4477;48.736;9.176;2024-03-06T09:21:59;5.30;99.90
8882;DHT22;4477;48.736;9.176;2024-03-06T09:24:28;5.30;99.90
8882;DHT22;4477;48.736;9.176;2024-03-06T09:26:55;5.20;99.90
8882;DHT22;4477;48.736;9.176;2024-03-06T09:29:22;5.20;99.90
8882;DHT22;4477;48.736;9.176;2024-03-06T09:31:49;5.20;99.90
8882;DHT22;4477;48.736;9.176;2024-03-06T09:34:16;5.20;99.90
8882;DHT22;4477;48.736;9.176;2024-03-06T09:36:47;5.10;99.90
8882;DHT22;4477;48.736;9.176;2024-03-06T09:39:14;5.10;99.90
8882;DHT22;4477;48.736;9.176;2024-03-06T09:41:44;5.10;99.90
8882;DHT22;4477;48.736;9.176;2024-03-06T09:44:12;5.20;99.90
8882;DHT22;4477;48.736;9.176;2024-03-06T09:46:41;5.10;99.90
8882;DHT22;4477;48.736;9.176;2024-03-06T09:49:10;5.10;99.90
8882;DHT22;4477;48.736;9.176;2024-03-06T09:51:39;5.10;99.90
8882;DHT22;4477;48.736;9.176;2024-03-06T09:54:07;5.20;99.90
8882;DHT22;4477;48.736;9.176;2024-03-06T09:56:35;5.10;99.90
8882;DHT22;4477;48.736;9.176;2024-03-06T09:59:03;5.20;99.90
8882;DHT22;4477;48.736;9.176;2024-03-06T10:01:31;5.20;99.90
8882;DHT22;4477;48.736;9.176;2024-03-06T10:03:59;5.20;99.90
8882;DHT22;4477;48.736;9.176;2024-03-06T10:06:26;5.20;99.90
8882;DHT22;4477;48.736;9.176;2024-03-06T10:09:03;5.20;99.90
8882;DHT22;4477;48.736;9.176;2024-03-06T10:11:38;5.20;99.90
8882;DHT22;4477;48.736;9.176;2024-03-06T10:14:07;5.30;99.90
8882;DHT22;4477;48.736;9.176;2024-03-06T10:16:35;5.40;99.90
8882;DHT22;4477;48.736;9.176;2024-03-06T10:19:15;5.30;99.90
8882;DHT22;4477;48.736;9.176;2024-03-06T10:21:44;5.30;99.90
8882;DHT22;4477;48.736;9.176;2024-03-06T10:24:11;5.20;99.90
8882;DHT22;4477;48.736;9.176;2024-03-06T10:26:39;5.20;99.90
8882;DHT22;4477;48.736;9.176;2024-03-06T10:29:07;5.30;99.90
8882;DHT22;4477;48.736;9.176;2024-03-06T10:31:34;5.30;99.90
8882;DHT22;4477;48.736;9.176;2024-03-06T10:34:01;5.40;99.90
8882;DHT22;4477;48.736;9.176;2024-03-06T10:36:31;5.40;99.90
8882;DHT22;4477;48.736;9.176;2024-03-06T10:39:01;5.50;99.90
8882;DHT22;4477;48.736;9.176;2024-03-06T10:41:30;5.60;99.90
8882;DHT22;4477;48.736;9.176;2024-03-06T10:43:59;5.70;99.90
8882;DHT22;4477;48.736;9.176;2024-03-06T10:46:29;6.10;99.90
8882;DHT22;4477;48.736;9.176;2024-03-06T10:48:57;6.40;99.90
8882;DHT22;4477;48.736;9.176;2024-03-06T10:51:26;6.60;99.90
8882;DHT22;4477;48.736;9.176;2024-03-06T10:53:56;6.60;99.90
8882;DHT22;4477;48.736;9.176;2024-03-06T10:56:24;6.30;99.90
8882;DHT22;4477;48.736;9.176;2024-03-06T10:58:53;6.30;99.90
8882;DHT22;4477;48.736;9.176;2024-03-06T11:01:22;6.30;99.90
8882;DHT22;4477;48.736;9.176;2024-03-06T11:03:51;6.30;99.90
8882;DHT22;4477;48.736;9.176;2024-03-06T11:06:19;6.50;99.90
8882;DHT22;4477;48.736;9.176;2024-03-06T11:08:45;6.50;99.90
8882;DHT22;4477;48.736;9.176;2024-03-06T11:11:20;6.40;99.90
8882;DHT22;4477;48.736;9.176;2024-03-06T11:13:47;6.30;99.90
8882;DHT22;4477;48.736;9.176;2024-03-06T11:16:14;6.10;99.90
8882;DHT22;4477;48.736;9.176;2024-03-06T11:18:45;6.00;99.90
8882;DHT22;4477;48.736;9.176;2024-03-06T11:21:32;6.10;99.90
8882;DHT22;4477;48.736;9.176;2024-03-06T11:24:19;5.90;99.90
8882;DHT22;4477;48.736;9.176;2024-03-06T11:26:47;5.90;99.90
8882;DHT22;4477;48.736;9.176;2024-03-06T11:29:18;5.80;99.90
8882;DHT22;4477;48.736;9.176;2024-03-06T11:32:06;5.80;99.90
8882;DHT22;4477;48.736;9.176;2024-03-06T11:34:35;5.90;99.90
8882;DHT22;4477;48.736;9.176;2024-03-06T11:37:07;5.90;99.90
8882;DHT22;4477;48.736;9.176;2024-03-06T11:39:37;5.70;99.90
8882;DHT22;4477;48.736;9.176;2024-03-06T11:42:05;5.70;99.90
8882;DHT22;4477;48.736;9.176;2024-03-06T11:44:34;5.60;99.90
8882;DHT22;4477;48.736;9.176;2024-03-06T11:47:02;5.70;99.90
8882;DHT22;4477;48.736;9.176;2024-03-06T11:49:30;5.60;99.90
8882;DHT22;4477;48.736;9.176;2024-03-06T11:52:01;5.60;99.90
8882;DHT22;4477;48.736;9.176;2024-03-06T11:54:29;5.50;99.90
8882;DHT22;4477;48.736;9.176;2024-03-06T11:56:58;5.50;99.90
8882;DHT22;4477;48.736;9.176;2024-03-06T11:59:26;5.50;99.90
8882;DHT22;4477;48.736;9.176;2024-03-06T12:01:53;5.50;99.90
8882;DHT22;4477;48.736;9.176;2024-03-06T12:04:21;5.60;99.90
8882;DHT22;4477;48.736;9.176;2024-03-06T12:06:49;5.70;99.90
8882;DHT22;4477;48.736;9.176;2024-03-06T12:09:17;5.60;99.90
8882;DHT22;4477;48.736;9.176;2024-03-06T12:11:45;5.50;99.90
8882;DHT22;4477;48.736;9.176;2024-03-06T12:14:17;5.80;99.90
8882;DHT22;4477;48.736;9.176;2024-03-06T12:16:54;5.90;99.90
8882;DHT22;4477;48.736;9.176;2024-03-06T12:19:22;5.90;99.90
8882;DHT22;4477;48.736;9.176;2024-03-06T12:21:50;5.80;99.90
8882;DHT22;4477;48.736;9.176;2024-03-06T12:24:17;5.80;99.90
8882;DHT22;4477;48.736;9.176;2024-03-06T12:26:46;5.80;99.90
8882;DHT22;4477;48.736;9.176;2024-03-06T12:29:28;5.80;99.90
8882;DHT22;4477;48.736;9.176;2024-03-06T12:31:56;6.00;99.90
8882;DHT22;4477;48.736;9.176;2024-03-06T12:34:23;6.00;99.90
8882;DHT22;4477;48.736;9.176;2024-03-06T12:36:50;6.00;99.90
8882;DHT22;4477;48.736;9.176;2024-03-06T12:39:17;6.10;99.90
8882;DHT22;4477;48.736;9.176;2024-03-06T12:41:49;6.00;99.90
8882;DHT22;4477;48.736;9.176;2024-03-06T12:44:16;5.90;99.90
8882;DHT22;4477;48.736;9.176;2024-03-06T12:46:43;5.80;99.90
8882;DHT22;4477;48.736;9.176;2024-03-06T12:49:10;5.80;99.90
8882;DHT22;4477;48.736;9.176;2024-03-06T12:51:37;5.80;99.90
8882;DHT22;4477;48.736;9.176;2024-03-06T12:54:04;6.00;99.90
8882;DHT22;4477;48.736;9.176;2024-03-06T12:56:31;6.00;99.90
8882;DHT22;4477;48.736;9.176;2024-03-06T12:58:59;6.00;99.90
8882;DHT22;4477;48.736;9.176;2024-03-06T13:01:26;5.80;99.90
8882;DHT22;4477;48.736;9.176;2024-03-06T13:03:53;5.90;99.90
8882;DHT22;4477;48.736;9.176;2024-03-06T13:06:20;5.80;99.90
8882;DHT22;4477;48.736;9.176;2024-03-06T13:08:48;5.80;99.90
8882;DHT22;4477;48.736;9.176;2024-03-06T13:11:14;5.80;99.90
8882;DHT22;4477;48.736;9.176;2024-03-06T13:13:41;5.80;99.90
8882;DHT22;4477;48.736;9.176;2024-03-06T13:16:10;5.80;99.90
8882;DHT22;4477;48.736;9.176;2024-03-06T13:18:37;5.70;99.90
8882;DHT22;4477;48.736;9.176;2024-03-06T13:21:04;5.60;99.90
8882;DHT22;4477;48.736;9.176;2024-03-06T13:23:31;5.60;99.90
8882;DHT22;4477;48.736;9.176;2024-03-06T13:25:58;5.70;99.90
8882;DHT22;4477;48.736;9.176;2024-03-06T13:28:26;5.70;99.90
8882;DHT22;4477;48.736;9.176;2024-03-06T13:30:55;5.70;99.90
8882;DHT22;4477;48.736;9.176;2024-03-06T13:33:24;5.70;99.90
8882;DHT22;4477;48.736;9.176;2024-03-06T13:35:51;5.60;99.90
8882;DHT22;4477;48.736;9.176;2024-03-06T13:38:19;5.60;99.90
8882;DHT22;4477;48.736;9.176;2024-03-06T13:40:46;5.60;99.90
8882;DHT22;4477;48.736;9.176;2024-03-06T13:43:13;5.60;99.90
8882;DHT22;4477;48.736;9.176;2024-03-06T13:45:48;5.60;99.90
8882;DHT22;4477;48.736;9.176;2024-03-06T13:48:15;5.50;99.90
8882;DHT22;4477;48.736;9.176;2024-03-06T13:50:44;5.50;99.90
8882;DHT22;4477;48.736;9.176;2024-03-06T13:53:11;5.50;99.90
8882;DHT22;4477;48.736;9.176;2024-03-06T13:55:38;5.50;99.90
8882;DHT22;4477;48.736;9.176;2024-03-06T13:58:05;5.50;99.90
8882;DHT22;4477;48.736;9.176;2024-03-06T14:00:33;5.50;99.90
8882;DHT22;4477;48.736;9.176;2024-03-06T14:03:00;5.50;99.90
8882;DHT22;4477;48.736;9.176;2024-03-06T14:05:27;5.50;99.90
8882;DHT22;4477;48.736;9.176;2024-03-06T14:07:55;5.50;99.90
8882;DHT22;4477;48.736;9.176;2024-03-06T14:10:22;5.50;99.90
8882;DHT22;4477;48.736;9.176;2024-03-06T14:12:50;5.50;99.90
8882;DHT22;4477;48.736;9.176;2024-03-06T14:15:17;5.50;99.90
8882;DHT22;4477;48.736;9.176;2024-03-06T14:17:45;5.50;99.90
8882;DHT22;4477;48.736;9.176;2024-03-06T14:20:12;5.50;99.90
8882;DHT22;4477;48.736;9.176;2024-03-06T14:22:39;5.50;99.90
8882;DHT22;4477;48.736;9.176;2024-03-06T14:25:07;5.50;99.90
8882;DHT22;4477;48.736;9.176;2024-03-06T14:27:34;5.50;99.90
8882;DHT22;4477;48.736;9.176;2024-03-06T14:30:02;5.50;99.90
8882;DHT22;4477;48.736;9.176;2024-03-06T14:32:29;5.50;99.90
8882;DHT22;4477;48.736;9.176;2024-03-06T14:34:56;5.50;99.90
8882;DHT22;4477;48.736;9.176;2024-03-06T14:37:23;5.50;99.90
8882;DHT22;4477;48.736;9.176;2024-03-06T14:39:50;5.50;99.90
8882;DHT22;4477;48.736;9.176;2024-03-06T14:42:19;5.50;99.90
8882;DHT22;4477;48.736;9.176;2024-03-06T14:44:46;5.50;99.90
8882;DHT22;4477;48.736;9.176;2024-03-06T14:47:14;5.50;99.90
8882;DHT22;4477;48.736;9.176;2024-03-06T14:49:42;5.50;99.90
8882;DHT22;4477;48.736;9.176;2024-03-06T14:52:10;5.50;99.90
8882;DHT22;4477;48.736;9.176;2024-03-06T14:54:38;5.50;99.90
8882;DHT22;4477;48.736;9.176;2024-03-06T14:57:06;5.50;99.90
8882;DHT22;4477;48.736;9.176;2024-03-06T14:59:34;5.50;99.90
8882;DHT22;4477;48.736;9.176;2024-03-06T15:02:01;5.60;99.90
8882;DHT22;4477;48.736;9.176;2024-03-06T15:04:29;5.60;99.90
8882;DHT22;4477;48.736;9.176;2024-03-06T15:06:56;5.70;99.90
8882;DHT22;4477;48.736;9.176;2024-03-06T15:09:24;5.80;99.90
8882;DHT22;4477;48.736;9.176;2024-03-06T15:11:51;5.80;99.90
8882;DHT22;4477;48.736;9.176;2024-03-06T15:14:19;5.80;99.90
8882;DHT22;4477;48.736;9.176;2024-03-06T15:16:47;5.80;99.90
8882;DHT22;4477;48.736;9.176;2024-03-06T15:19:14;5.70;99.90
8882;DHT22;4477;48.736;9.176;2024-03-06T15:21:45;5.70;99.90
8882;DHT22;4477;48.736;9.176;2024-03-06T15:24:12;5.60;99.90
8882;DHT22;4477;48.736;9.176;2024-03-06T15:26:39;5.60;99.90
8882;DHT22;4477;48.736;9.176;2024-03-06T15:29:06;5.50;99.90
8882;DHT22;4477;48.736;9.176;2024-03-06T15:31:35;5.50;99.90
8882;DHT22;4477;48.736;9.176;2024-03-06T15:34:03;5.50;99.90
8882;DHT22;4477;48.736;9.176;2024-03-06T15:36:30;5.50;99.90
8882;DHT22;4477;48.736;9.176;2024-03-06T15:38:57;5.40;99.90
8882;DHT22;4477;48.736;9.176;2024-03-06T15:41:24;5.50;99.90
8882;DHT22;4477;48.736;9.176;2024-03-06T15:43:51;5.50;99.90
8882;DHT22;4477;48.736;9.176;2024-03-06T15:46:18;5.50;99.90
8882;DHT22;4477;48.736;9.176;2024-03-06T15:48:45;5.50;99.90
8882;DHT22;4477;48.736;9.176;2024-03-06T15:51:13;5.50;99.90
8882;DHT22;4477;48.736;9.176;2024-03-06T15:53:40;5.50;99.90
8882;DHT22;4477;48.736;9.176;2024-03-06T15:56:07;5.50;99.90
8882;DHT22;4477;48.736;9.176;2024-03-06T15:58:35;5.50;99.90
8882;DHT22;4477;48.736;9.176;2024-03-06T16:01:03;5.50;99.90
8882;DHT22;4477;48.736;9.176;2024-03-06T16:03:30;5.50;99.90
8882;DHT22;4477;48.736;9.176;2024-03-06T16:05:57;5.50;99.90
8882;DHT22;4477;48.736;9.176;2024-03-06T16:08:26;5.50;99.90
8882;DHT22;4477;48.736;9.176;2024-03-06T16:10:55;5.50;99.90
8882;DHT22;4477;48.736;9.176;2024-03-06T16:13:21;5.50;99.90
8882;DHT22;4477;48.736;9.176;2024-03-06T16:15:48;5.50;99.90
8882;DHT22;4477;48.736;9.176;2024-03-06T16:18:16;5.50;99.90
8882;DHT22;4477;48.736;9.176;2024-03-06T16:20:43;5.50;99.90
8882;DHT22;4477;48.736;9.176;2024-03-06T16:23:10;5.50;99.90